Time;durP1;ratioP1;P1;durP2;ratioP2;P2;SDS_P1;SDS_P2;PMS_P1;PMS_P2;Temp;Humidity;BMP_temperature;BMP_pressure;BME280_temperature;BME280_humidity;BME280_pressure;Samples;Min_cycle;Max_cycle;Signal;HPM_P1;HPM_P2
2022/09/21 00:00:05;;;;;;;4.97;1.65;;;;;;;;;;5024932;28;20514;-40
2022/09/21 00:02:31;;;;;;;5.05;1.48;;;6.10;99.90;;;;;;5025193;28;20514;-40
2022/09/21 00:04:56;;;;;;;6.50;1.60;;;6.50;99.90;;;;;;5025406;28;20034;-40
2022/09/21 00:07:22;;;;;;;11.77;1.48;;;6.40;99.90;;;;;;5027009;28;20041;-40
2022/09/21 00:09:48;;;;;;;6.25;1.75;;;6.30;99.90;;;;;;5028785;28;20060;-40
2022/09/21 00:12:15;;;;;;;6.32;1.90;;;6.30;99.90;;;;;;5028970;28;20077;-39
2022/09/21 00:14:42;;;;;;;4.38;1.42;;;6.30;99.90;;;;;;5029260;28;20057;-40
2022/09/21 00:17:08;;;;;;;7.95;1.13;;;6.30;99.90;;;;;;5029154;28;20073;-40
2022/09/21 00:19:34;;;;;;;9.70;1.63;;;6.30;99.90;;;;;;5029296;28;20150;-40
2022/09/21 00:22:00;;;;;;;6.30;1.58;;;6.20;99.90;;;;;;5029183;28;20037;-40
2022/09/21 00:24:26;;;;;;;3.80;1.40;;;6.30;99.90;;;;;;5028920;28;20056;-40
2022/09/21 00:26:52;;;;;;;7.03;1.63;;;6.20;99.90;;;;;;5029246;28;20049;-40
2022/09/21 00:29:18;;;;;;;6.43;2.13;;;6.20;99.90;;;;;;5029541;28;20064;-39
2022/09/21 00:31:44;;;;;;;9.18;2.10;;;6.20;99.90;;;;;;5029990;28;20045;-39
2022/09/21 00:34:10;;;;;;;10.93;2.00;;;6.20;99.90;;;;;;5030052;28;20466;-40
2022/09/21 00:36:35;;;;;;;7.20;1.40;;;6.20;99.90;;;;;;5029842;28;20052;-39
2022/09/21 00:39:02;;;;;;;3.80;1.25;;;6.20;99.90;;;;;;5029152;28;20091;-39
2022/09/21 00:41:30;;;;;;;4.47;1.25;;;6.20;99.90;;;;;;5029125;28;20045;-39
2022/09/21 00:44:26;;;;;;;3.03;0.88;;;6.20;99.90;;;;;;5028762;28;20103;-39
2022/09/21 00:46:57;;;;;;;3.38;0.50;;;6.10;99.90;;;;;;5029166;28;20056;-39
2022/09/21 00:49:25;;;;;;;3.75;0.45;;;6.10;99.90;;;;;;5028746;28;20395;-39
2022/09/21 00:51:52;;;;;;;6.95;0.77;;;6.10;99.90;;;;;;5028635;28;20045;-39
2022/09/21 00:54:31;;;;;;;5.68;0.80;;;6.00;99.90;;;;;;5028293;28;20045;-39
2022/09/21 00:57:00;;;;;;;6.82;1.30;;;6.00;99.90;;;;;;5028247;28;20156;-39
2022/09/21 00:59:26;;;;;;;4.43;1.23;;;5.90;99.90;;;;;;5028781;28;20394;-39
2022/09/21 01:01:52;;;;;;;3.90;1.17;;;6.00;99.90;;;;;;5028994;28;20044;-39
2022/09/21 01:04:20;;;;;;;3.53;1.17;;;5.90;99.90;;;;;;5029094;28;20554;-39
2022/09/21 01:06:47;;;;;;;7.53;1.30;;;5.90;99.90;;;;;;5028917;28;20384;-39
2022/09/21 01:09:14;;;;;;;6.20;1.00;;;5.90;99.90;;;;;;5027954;28;20065;-39
2022/09/21 01:11:55;;;;;;;3.92;1.58;;;5.90;99.90;;;;;;5028313;28;20456;-39
2022/09/21 01:14:37;;;;;;;4.15;1.23;;;5.90;99.90;;;;;;5028023;28;20053;-39
2022/09/21 01:17:03;;;;;;;3.28;1.30;;;5.90;99.90;;;;;;5028334;28;20095;-39
2022/09/21 01:19:38;;;;;;;5.95;1.67;;;;;;;;;;5028254;28;20053;-39
2022/09/21 01:22:24;;;;;;;7.22;1.25;;;;;;;;;;5028367;28;20069;-38
2022/09/21 01:25:27;;;;;;;6.40;0.80;;;5.70;99.90;;;;;;5028512;28;20294;-39
2022/09/21 01:28:19;;;;;;;5.70;1.40;;;5.80;99.90;;;;;;5027823;28;20038;-39
2022/09/21 01:30:48;;;;;;;9.23;2.13;;;5.70;99.90;;;;;;5028233;28;20045;-38
2022/09/21 01:33:31;;;;;;;9.90;2.15;;;5.80;99.90;;;;;;5027966;28;20046;-38
2022/09/21 01:36:02;;;;;;;7.97;2.20;;;5.70;99.90;;;;;;5028395;28;20458;-39
2022/09/21 01:38:34;;;;;;;6.18;2.13;;;5.70;99.90;;;;;;5027853;28;20495;-39
2022/09/21 01:41:02;;;;;;;;;;;5.60;99.90;;;;;;5028688;28;20103;-39
2022/09/21 01:43:35;;;;;;;4.22;1.20;;;5.60;99.90;;;;;;5010126;28;19920;-39
2022/09/21 01:46:03;;;;;;;5.90;1.20;;;5.60;99.90;;;;;;5027865;28;20454;-39
2022/09/21 01:48:34;;;;;;;3.75;1.27;;;5.30;99.90;;;;;;5028070;28;20048;-40
2022/09/21 01:51:02;;;;;;;6.18;1.42;;;5.60;99.90;;;;;;5028382;28;20049;-39
2022/09/21 01:53:37;;;;;;;6.85;1.75;;;5.50;99.90;;;;;;5027932;28;20084;-39
2022/09/21 01:56:18;;;;;;;17.98;1.85;;;5.50;99.90;;;;;;5027147;28;20392;-39
2022/09/21 01:59:12;;;;;;;16.70;1.33;;;5.50;99.90;;;;;;5027668;28;20101;-39
2022/09/21 02:01:45;;;;;;;3.20;1.10;;;5.50;99.90;;;;;;5028080;28;20041;-39
2022/09/21 02:04:12;;;;;;;4.32;1.20;;;5.40;99.90;;;;;;5027403;28;20053;-39
2022/09/21 02:06:41;;;;;;;6.78;1.60;;;5.50;99.90;;;;;;5027855;28;20050;-39
2022/09/21 02:09:08;;;;;;;5.40;1.42;;;5.60;99.90;;;;;;5026893;28;20157;-40
2022/09/21 02:11:41;;;;;;;4.50;1.60;;;5.50;99.90;;;;;;5027356;28;20050;-39
2022/09/21 02:14:09;;;;;;;8.65;2.13;;;5.70;99.90;;;;;;5027177;28;20049;-39
2022/09/21 02:16:54;;;;;;;7.28;2.40;;;5.90;99.90;;;;;;5027421;28;20069;-39
2022/09/21 02:19:45;;;;;;;8.70;2.30;;;5.40;99.90;;;;;;5027499;28;20056;-39
2022/09/21 02:22:30;;;;;;;5.53;2.03;;;5.40;99.90;;;;;;5027690;28;20443;-39
2022/09/21 02:25:12;;;;;;;5.75;1.73;;;5.30;99.90;;;;;;5027651;28;20209;-39
2022/09/21 02:27:43;;;;;;;3.63;1.40;;;5.30;99.90;;;;;;5027610;28;20060;-39
2022/09/21 02:30:19;;;;;;;10.60;1.45;;;5.50;99.90;;;;;;5026918;28;20283;-39
2022/09/21 02:33:03;;;;;;;5.07;1.30;;;5.40;99.90;;;;;;5026903;28;20034;-39
2022/09/21 02:35:36;;;;;;;7.22;1.75;;;5.30;99.90;;;;;;5026863;28;20556;-39
2022/09/21 02:38:13;;;;;;;10.60;1.77;;;5.30;99.90;;;;;;5027186;28;20043;-39
2022/09/21 02:40:55;;;;;;;4.15;1.00;;;5.20;99.90;;;;;;5026586;28;20050;-39
2022/09/21 02:43:26;;;;;;;6.53;1.73;;;5.20;99.90;;;;;;5026131;28;20132;-39
2022/09/21 02:46:04;;;;;;;5.03;1.30;;;5.10;99.90;;;;;;5027306;28;20081;-39
2022/09/21 02:48:37;;;;;;;7.80;1.52;;;5.20;99.90;;;;;;5026475;28;20152;-39
2022/09/21 02:51:08;;;;;;;9.82;1.00;;;5.10;99.90;;;;;;5026484;28;20269;-39
2022/09/21 02:53:37;;;;;;;38.95;1.80;;;5.00;99.90;;;;;;5026464;28;20060;-40
2022/09/21 02:56:06;;;;;;;10.68;1.70;;;5.20;99.90;;;;;;5026741;28;20041;-39
2022/09/21 02:58:37;;;;;;;9.23;2.10;;;5.10;99.90;;;;;;5026262;28;20041;-39
2022/09/21 03:01:07;;;;;;;8.82;1.70;;;5.10;99.90;;;;;;5026801;28;20403;-39
2022/09/21 03:03:33;;;;;;;4.80;1.33;;;4.90;99.90;;;;;;5026514;28;20041;-39
2022/09/21 03:06:00;;;;;;;4.90;1.38;;;;;;;;;;5027033;28;20045;-39
2022/09/21 03:08:26;;;;;;;9.23;2.13;;;4.60;99.90;;;;;;5025922;28;20130;-39
2022/09/21 03:10:52;;;;;;;4.35;1.40;;;4.90;99.90;;;;;;5026454;28;20091;-39
2022/09/21 03:13:19;;;;;;;7.72;1.67;;;;;;;;;;5026039;28;20044;-39
2022/09/21 03:15:45;;;;;;;7.30;2.10;;;;;;;;;;5026310;28;20214;-39
2022/09/21 03:18:14;;;;;;;6.38;1.90;;;;;;;;;;5026148;28;20125;-39
2022/09/21 03:20:44;;;;;;;3.05;1.35;;;;;;;;;;5026201;28;20445;-39
2022/09/21 03:23:11;;;;;;;8.60;2.30;;;;;;;;;;5025663;28;20091;-39
2022/09/21 03:25:37;;;;;;;4.90;1.77;;;;;;;;;;5025550;28;20467;-39
2022/09/21 03:28:04;;;;;;;8.57;2.33;;;;;;;;;;5025932;28;20037;-39
2022/09/21 03:30:31;;;;;;;8.07;2.80;;;;;;;;;;5025628;28;20495;-39
2022/09/21 03:32:57;;;;;;;8.85;2.97;;;;;;;;;;5026363;28;20053;-39
2022/09/21 03:35:25;;;;;;;10.25;3.58;;;;;;;;;;5025571;28;20041;-39
2022/09/21 03:37:53;;;;;;;8.52;2.83;;;;;;;;;;5025903;28;20046;-39
2022/09/21 03:40:20;;;;;;;9.50;3.00;;;;;;;;;;5025249;28;20056;-39
2022/09/21 03:42:46;;;;;;;8.05;2.50;;;;;;;;;;5025032;28;20050;-39
2022/09/21 03:45:12;;;;;;;6.53;1.88;;;;;;;;;;5025945;28;20038;-39
2022/09/21 03:47:39;;;;;;;5.65;2.03;;;;;;;;;;5025533;28;20045;-39
2022/09/21 03:50:05;;;;;;;3.95;1.13;;;;;;;;;;5026156;28;20391;-39
2022/09/21 03:52:32;;;;;;;3.33;0.90;;;;;;;;;;5025490;28;20403;-39
2022/09/21 03:54:57;;;;;;;4.70;0.60;;;4.30;99.90;;;;;;5025456;28;20483;-39
2022/09/21 03:57:24;;;;;;;2.25;0.40;;;4.30;99.90;;;;;;5025447;28;20403;-39
2022/09/21 03:59:49;;;;;;;3.30;0.40;;;4.30;99.90;;;;;;5025540;28;20044;-39
2022/09/21 04:02:15;;;;;;;2.45;0.40;;;4.20;99.90;;;;;;5025915;28;20045;-39
2022/09/21 04:04:41;;;;;;;2.72;0.75;;;4.30;99.90;;;;;;5025270;28;20575;-38
2022/09/21 04:07:07;;;;;;;11.05;1.10;;;4.20;99.90;;;;;;5025571;28;20050;-39
2022/09/21 04:09:33;;;;;;;10.05;0.95;;;4.10;99.90;;;;;;5025223;28;20063;-39
2022/09/21 04:11:59;;;;;;;13.80;0.45;;;4.10;99.90;;;;;;5025659;28;20073;-38
2022/09/21 04:14:24;;;;;;;1.38;0.20;;;4.00;99.90;;;;;;5025197;28;20045;-38
2022/09/21 04:16:50;;;;;;;1.38;0.20;;;4.00;99.90;;;;;;5025716;28;20057;-38
2022/09/21 04:19:17;;;;;;;1.08;0.20;;;4.00;99.90;;;;;;5025732;28;20050;-38
2022/09/21 04:21:43;;;;;;;2.13;0.35;;;4.00;99.90;;;;;;5025627;28;20412;-38
2022/09/21 04:24:08;;;;;;;2.78;0.40;;;3.90;99.90;;;;;;5024245;28;20041;-38
2022/09/21 04:26:35;;;;;;;3.17;0.20;;;3.90;99.90;;;;;;5025488;28;20037;-38
2022/09/21 04:29:01;;;;;;;1.80;0.30;;;3.90;99.90;;;;;;5025467;28;20045;-38
2022/09/21 04:31:28;;;;;;;1.75;0.30;;;3.90;99.90;;;;;;5025250;28;20495;-38
2022/09/21 04:33:56;;;;;;;1.17;0.30;;;3.80;99.90;;;;;;5025379;28;20045;-39
2022/09/21 04:36:23;;;;;;;0.90;0.22;;;3.80;99.90;;;;;;5007407;28;20140;-38
2022/09/21 04:38:49;;;;;;;1.52;0.40;;;3.80;99.90;;;;;;5025313;28;20496;-39
2022/09/21 04:41:15;;;;;;;2.75;0.50;;;3.70;99.90;;;;;;5025022;28;20099;-39
2022/09/21 04:43:46;;;;;;;2.35;0.60;;;3.70;99.90;;;;;;5025298;28;20049;-39
2022/09/21 04:46:14;;;;;;;4.63;0.80;;;3.70;99.90;;;;;;5024932;28;20053;-39
2022/09/21 04:48:41;;;;;;;2.00;0.60;;;3.60;99.90;;;;;;5024444;28;20069;-39
2022/09/21 04:51:08;;;;;;;5.18;0.57;;;3.60;99.90;;;;;;5024320;28;20055;-39
2022/09/21 04:53:36;;;;;;;4.05;0.90;;;3.50;99.90;;;;;;5026518;28;20502;-39
2022/09/21 04:56:03;;;;;;;7.10;0.90;;;3.60;99.90;;;;;;5028910;28;20452;-39
2022/09/21 04:58:29;;;;;;;2.85;0.80;;;4.30;99.90;;;;;;5028695;28;20116;-39
2022/09/21 05:00:55;;;;;;;6.28;1.13;;;3.50;99.90;;;;;;5028491;28;20045;-39
2022/09/21 05:03:23;;;;;;;5.57;0.85;;;3.50;99.90;;;;;;5028733;28;20049;-39
2022/09/21 05:05:54;;;;;;;0.77;0.10;;;3.50;99.90;;;;;;5028439;28;20124;-39
2022/09/21 05:11:05;;;;;;;0.20;0.00;;;3.50;99.90;;;;;;5029018;28;20041;-39
2022/09/21 05:13:31;;;;;;;0.95;0.00;;;3.40;99.90;;;;;;5028098;28;20049;-39
2022/09/21 05:15:56;;;;;;;0.35;0.00;;;3.40;99.90;;;;;;5028474;28;20503;-39
2022/09/21 05:18:22;;;;;;;0.90;0.00;;;3.40;99.90;;;;;;5028318;28;20099;-39
2022/09/21 05:20:58;;;;;;;0.38;0.10;;;3.60;99.90;;;;;;5028767;28;20045;-39
2022/09/21 05:23:25;;;;;;;0.60;0.10;;;3.70;99.90;;;;;;5028900;28;20061;-39
2022/09/21 05:25:50;;;;;;;1.92;0.30;;;3.40;99.90;;;;;;5028501;28;20103;-39
2022/09/21 05:28:18;;;;;;;1.50;0.65;;;3.40;99.90;;;;;;5028933;28;20452;-39
2022/09/21 05:30:51;;;;;;;2.05;0.28;;;3.40;99.90;;;;;;5027979;28;20037;-38
2022/09/21 05:33:19;;;;;;;1.77;0.50;;;3.40;99.90;;;;;;5028488;28;20593;-39
2022/09/21 05:35:59;;;;;;;7.10;1.08;;;3.40;99.90;;;;;;5010052;28;20051;-39
2022/09/21 05:38:25;;;;;;;4.35;0.75;;;3.40;99.90;;;;;;5028501;28;20045;-39
2022/09/21 05:40:52;;;;;;;12.27;1.63;;;3.60;99.90;;;;;;5028054;28;20391;-39
2022/09/21 05:43:18;;;;;;;4.10;1.40;;;3.90;99.90;;;;;;5027963;28;20396;-38
2022/09/21 05:45:46;;;;;;;4.75;1.23;;;4.20;99.90;;;;;;5027704;28;20128;-38
2022/09/21 05:48:18;;;;;;;6.47;1.05;;;4.10;99.90;;;;;;5027542;28;20050;-38
2022/09/21 05:51:05;;;;;;;2.75;0.98;;;4.50;99.90;;;;;;5027882;28;20053;-38
2022/09/21 05:53:50;;;;;;;3.55;0.73;;;4.20;99.90;;;;;;5027410;28;20056;-38
2022/09/21 05:56:36;;;;;;;0.75;0.20;;;4.30;99.90;;;;;;5027754;28;20049;-38
2022/09/21 05:59:28;;;;;;;1.25;0.30;;;4.30;99.90;;;;;;5027756;28;20048;-38
2022/09/21 06:02:30;;;;;;;1.25;0.20;;;4.40;99.90;;;;;;5028741;28;20088;-38
2022/09/21 06:04:58;;;;;;;3.33;0.80;;;4.40;99.90;;;;;;5027745;28;20049;-38
2022/09/21 06:07:24;;;;;;;6.25;1.98;;;4.50;99.90;;;;;;5028044;28;20053;-37
2022/09/21 06:09:49;;;;;;;10.75;3.72;;;4.50;99.90;;;;;;5027393;28;20053;-37
2022/09/21 06:12:15;;;;;;;6.05;2.05;;;4.40;99.90;;;;;;5027976;28;20502;-38
2022/09/21 06:14:41;;;;;;;8.25;2.05;;;4.40;99.90;;;;;;5027423;28;20094;-38
2022/09/21 06:17:07;;;;;;;6.80;1.60;;;4.40;99.90;;;;;;5027847;28;20046;-38
2022/09/21 06:19:33;;;;;;;3.67;1.25;;;4.60;99.90;;;;;;5027511;28;20048;-38
2022/09/21 06:21:59;;;;;;;5.25;1.30;;;4.40;99.90;;;;;;5027118;28;20033;-38
2022/09/21 06:24:24;;;;;;;2.83;0.90;;;4.70;99.90;;;;;;5027005;28;20490;-38
2022/09/21 06:26:50;;;;;;;2.97;1.45;;;4.50;99.90;;;;;;5027386;28;20046;-38
2022/09/21 06:29:22;;;;;;;5.85;1.45;;;4.60;99.90;;;;;;5027383;28;20050;-38
2022/09/21 06:31:49;;;;;;;2.80;0.90;;;4.70;99.90;;;;;;5009452;28;20053;-38
2022/09/21 06:34:14;;;;;;;5.45;1.48;;;4.80;99.90;;;;;;5027509;28;20049;-38
2022/09/21 06:36:40;;;;;;;4.38;1.10;;;5.50;99.90;;;;;;5026729;28;20044;-38
2022/09/21 06:39:06;;;;;;;4.25;1.35;;;4.70;99.90;;;;;;5026965;28;20049;-38
2022/09/21 06:41:31;;;;;;;7.93;2.00;;;4.90;99.90;;;;;;5026606;28;20041;-38
2022/09/21 06:43:57;;;;;;;7.03;2.03;;;4.90;99.90;;;;;;5026924;28;20128;-39
2022/09/21 06:46:23;;;;;;;7.57;3.75;;;5.10;99.90;;;;;;5026413;28;20080;-38
2022/09/21 06:48:49;;;;;;;6.80;2.03;;;6.00;99.90;;;;;;5026899;28;20128;-39
2022/09/21 06:51:15;;;;;;;8.27;2.38;;;6.30;99.90;;;;;;5026874;28;20549;-39
2022/09/21 06:53:40;;;;;;;7.57;3.63;;;5.40;99.90;;;;;;5026157;28;20464;-39
2022/09/21 06:56:08;;;;;;;10.27;4.00;;;6.60;99.90;;;;;;5026280;28;20049;-39
2022/09/21 06:58:36;;;;;;;10.48;3.50;;;6.30;99.90;;;;;;5027198;28;20037;-39
2022/09/21 07:01:11;;;;;;;8.25;3.65;;;6.30;99.90;;;;;;5026736;28;20585;-39
2022/09/21 07:03:37;;;;;;;8.52;3.15;;;6.60;99.90;;;;;;5027165;28;20403;-39
2022/09/21 07:06:04;;;;;;;10.07;3.63;;;6.80;99.90;;;;;;5026395;28;20033;-38
2022/09/21 07:08:30;;;;;;;12.23;2.92;;;6.80;99.90;;;;;;5026240;28;20115;-39
2022/09/21 07:11:00;;;;;;;8.55;3.13;;;6.90;99.90;;;;;;5026372;28;20041;-39
2022/09/21 07:13:26;;;;;;;11.63;4.13;;;7.00;99.90;;;;;;5026652;28;20492;-38
2022/09/21 07:15:52;;;;;;;10.73;3.42;;;7.10;99.90;;;;;;5026254;28;20037;-38
2022/09/21 07:18:17;;;;;;;11.85;4.32;;;7.20;99.90;;;;;;5026890;28;20040;-38
2022/09/21 07:20:43;;;;;;;12.50;4.90;;;7.30;99.90;;;;;;5026424;28;20454;-38
2022/09/21 07:23:14;;;;;;;15.55;4.70;;;7.50;99.90;;;;;;5026074;28;20056;-38
2022/09/21 07:25:44;;;;;;;10.30;4.03;;;7.60;99.90;;;;;;5026432;28;20041;-38
2022/09/21 07:28:10;;;;;;;10.98;4.40;;;7.70;99.90;;;;;;5026485;28;20041;-38
2022/09/21 07:30:38;;;;;;;14.52;3.40;;;7.80;99.90;;;;;;5026004;28;20622;-38
2022/09/21 07:33:04;;;;;;;11.95;3.97;;;8.40;99.90;;;;;;5026248;28;20045;-38
2022/09/21 07:35:30;;;;;;;11.02;2.88;;;8.40;99.90;;;;;;5026684;28;20041;-39
2022/09/21 07:38:02;;;;;;;12.95;4.18;;;8.20;99.90;;;;;;5025856;28;20040;-38
2022/09/21 07:40:28;;;;;;;8.20;3.40;;;8.60;99.90;;;;;;5026656;28;20046;-39
2022/09/21 07:43:02;;;;;;;13.82;4.40;;;8.70;99.90;;;;;;5025825;28;20034;-39
2022/09/21 07:45:29;;;;;;;8.93;4.50;;;8.80;99.90;;;;;;5026327;28;20496;-39
2022/09/21 07:48:00;;;;;;;10.43;3.10;;;8.70;99.90;;;;;;5026328;28;20060;-39
2022/09/21 07:50:26;;;;;;;8.35;2.60;;;8.70;99.90;;;;;;5026277;28;20037;-39
2022/09/21 07:52:51;;;;;;;13.80;3.42;;;9.70;99.90;;;;;;5026262;28;20454;-39
2022/09/21 07:55:17;;;;;;;11.63;3.38;;;9.30;99.90;;;;;;5026670;28;20037;-39
2022/09/21 08:00:31;;;;;;;11.23;2.25;;;9.50;99.90;;;;;;5025876;28;20096;-38
2022/09/21 08:02:57;;;;;;;11.50;3.35;;;9.60;99.90;;;;;;5025865;28;20860;-39
2022/09/21 08:05:23;;;;;;;10.38;2.40;;;10.00;99.90;;;;;;5026752;28;20546;-39
2022/09/21 08:07:48;;;;;;;11.43;2.13;;;9.90;99.90;;;;;;5025828;28;20045;-39
2022/09/21 08:10:14;;;;;;;13.05;1.70;;;9.90;99.90;;;;;;5025310;28;20054;-39
2022/09/21 08:12:42;;;;;;;9.27;2.28;;;10.10;99.90;;;;;;5025792;28;20040;-39
2022/09/21 08:15:10;;;;;;;14.35;2.20;;;10.20;99.90;;;;;;5025664;28;20050;-39
2022/09/21 08:17:37;;;;;;;8.90;1.58;;;10.30;99.90;;;;;;5025298;28;20527;-39
2022/09/21 08:20:03;;;;;;;6.38;1.50;;;10.50;99.90;;;;;;5007653;28;20121;-39
2022/09/21 08:22:29;;;;;;;12.52;1.70;;;11.00;99.90;;;;;;5025441;28;20053;-39
2022/09/21 08:24:54;;;;;;;8.80;1.42;;;10.80;99.90;;;;;;5024746;28;20041;-39
2022/09/21 08:27:20;;;;;;;13.20;1.85;;;11.20;99.90;;;;;;5025565;28;20549;-39
2022/09/21 08:29:46;;;;;;;10.05;0.95;;;11.30;99.90;;;;;;5030014;28;20740;-39
2022/09/21 08:32:11;;;;;;;7.22;1.00;;;11.90;99.90;;;;;;5025072;28;20044;-40
2022/09/21 08:34:37;;;;;;;4.63;0.93;;;11.80;99.90;;;;;;5029878;28;20081;-39
2022/09/21 08:37:03;;;;;;;6.90;0.95;;;12.10;99.90;;;;;;5029138;28;20505;-40
2022/09/21 08:39:28;;;;;;;8.48;0.90;;;12.60;99.90;;;;;;5029468;28;20045;-40
2022/09/21 08:42:09;;;;;;;10.27;1.98;;;12.60;99.90;;;;;;5028498;28;20042;-43
2022/09/21 08:44:55;;;;;;;5.40;0.50;;;;;;;;;;5025308;28;20119;-43
2022/09/21 08:47:26;;;;;;;6.78;0.75;;;;;;;;;;5010200;28;20099;-42
2022/09/21 08:49:58;;;;;;;10.57;0.73;;;13.80;99.90;;;;;;5031295;28;20053;-47
2022/09/21 08:52:24;;;;;;;;;;;14.40;99.90;;;;;;5034245;28;20053;-45
2022/09/21 08:54:50;;;;;;;4.03;0.30;;;14.60;99.90;;;;;;5034021;28;19921;-46
2022/09/21 08:57:17;;;;;;;4.38;0.55;;;14.80;99.90;;;;;;5027765;28;20037;-49
2022/09/21 08:59:48;;;;;;;4.43;0.35;;;15.10;99.90;;;;;;5027198;28;20076;-43
2022/09/21 09:02:32;;;;;;;5.30;0.40;;;15.30;99.90;;;;;;5031315;28;20141;-42
2022/09/21 09:05:21;;;;;;;3.22;0.30;;;15.30;99.90;;;;;;5033323;28;20038;-44
2022/09/21 09:08:25;;;;;;;5.43;0.35;;;15.60;99.90;;;;;;5033006;28;20558;-41
2022/09/21 09:10:56;;;;;;;5.35;0.40;;;16.20;99.90;;;;;;5033249;28;20115;-43
2022/09/21 09:13:41;;;;;;;6.18;0.68;;;16.10;99.90;;;;;;5033628;28;20054;-42
2022/09/21 09:16:35;;;;;;;6.78;0.52;;;16.50;99.90;;;;;;5031556;28;20049;-42
2022/09/21 09:19:27;;;;;;;5.32;0.93;;;16.70;99.90;;;;;;5013958;28;20037;-45
2022/09/21 09:21:54;;;;;;;5.18;0.52;;;16.90;99.90;;;;;;5033283;28;20484;-53
2022/09/21 09:24:48;;;;;;;7.93;0.35;;;17.00;99.90;;;;;;5033971;28;20099;-46
2022/09/21 09:27:19;;;;;;;3.25;0.95;;;17.40;99.90;;;;;;5033871;28;20038;-46
2022/09/21 09:30:01;;;;;;;4.57;0.77;;;17.90;99.90;;;;;;5016879;28;20049;-46
2022/09/21 09:32:39;;;;;;;8.05;0.50;;;18.50;99.90;;;;;;5014996;28;20045;-45
2022/09/21 09:35:53;;;;;;;6.18;0.55;;;18.90;99.90;;;;;;5033254;28;20454;-44
2022/09/21 09:38:39;;;;;;;3.08;0.30;;;18.70;99.90;;;;;;5005521;28;20099;-46
2022/09/21 09:41:31;;;;;;;4.47;0.40;;;18.60;99.90;;;;;;5029783;28;20037;-43
2022/09/21 09:43:59;;;;;;;7.70;0.30;;;18.80;99.90;;;;;;5009360;28;20049;-44
2022/09/21 09:46:36;;;;;;;6.03;0.50;;;19.10;99.90;;;;;;5026147;28;20047;-42
2022/09/21 09:49:23;;;;;;;7.05;0.65;;;19.70;99.90;;;;;;5031825;28;20041;-46
2022/09/21 09:51:50;;;;;;;2.83;0.20;;;19.80;99.90;;;;;;5028092;28;20044;-43
2022/09/21 09:54:20;;;;;;;4.82;0.30;;;20.10;99.90;;;;;;5028260;28;20169;-44
2022/09/21 09:56:46;;;;;;;4.78;0.30;;;20.10;99.90;;;;;;5008232;28;20056;-55
2022/09/21 09:59:35;;;;;;;2.65;0.20;;;20.00;99.90;;;;;;5025596;28;20041;-54
2022/09/21 10:02:20;;;;;;;6.32;0.40;;;19.70;99.90;;;;;;5025082;28;20049;-54
2022/09/21 10:05:08;;;;;;;4.35;0.57;;;19.60;99.30;;;;;;5026301;28;20045;-52
2022/09/21 10:07:47;;;;;;;4.40;0.20;;;19.70;98.00;;;;;;5010358;28;20059;-47
2022/09/21 10:10:27;;;;;;;3.10;0.28;;;20.00;98.30;;;;;;5028152;28;20065;-42
2022/09/21 10:12:55;;;;;;;4.07;0.20;;;20.20;98.00;;;;;;5028221;28;20483;-42
2022/09/21 10:15:23;;;;;;;9.63;0.57;;;19.90;96.60;;;;;;5028158;28;20564;-43
2022/09/21 10:18:02;;;;;;;3.95;0.25;;;19.70;94.10;;;;;;5027688;28;20175;-43
2022/09/21 10:20:29;;;;;;;3.25;0.90;;;19.50;92.70;;;;;;5026303;28;20048;-46
2022/09/21 10:22:56;;;;;;;3.15;0.22;;;19.40;94.00;;;;;;5025855;28;20049;-45
2022/09/21 10:25:22;;;;;;;4.18;0.63;;;19.30;95.10;;;;;;5025898;28;20102;-44
2022/09/21 10:27:50;;;;;;;3.72;0.20;;;19.10;93.50;;;;;;5011109;28;20380;-47
2022/09/21 10:30:33;;;;;;;3.67;0.57;;;18.90;92.50;;;;;;5034564;28;20077;-49
2022/09/21 10:33:00;;;;;;;4.35;0.20;;;18.60;91.20;;;;;;5034188;28;20037;-52
2022/09/21 10:35:26;;;;;;;4.60;0.30;;;18.60;92.10;;;;;;5028983;28;20041;-47
2022/09/21 10:38:15;;;;;;;2.05;0.10;;;18.30;92.00;;;;;;5026065;28;20037;-47
2022/09/21 10:40:43;;;;;;;4.47;0.40;;;18.00;93.40;;;;;;5029978;28;20052;-46
2022/09/21 10:43:32;;;;;;;3.85;0.28;;;17.70;94.20;;;;;;5024875;28;20049;-43
2022/09/21 10:45:58;;;;;;;5.22;0.77;;;17.50;92.90;;;;;;5026318;28;20049;-44
2022/09/21 10:48:25;;;;;;;4.72;0.30;;;17.40;94.30;;;;;;5026579;28;20095;-54
2022/09/21 10:50:53;;;;;;;3.45;0.43;;;17.50;94.90;;;;;;5027393;28;20046;-46
2022/09/21 10:53:24;;;;;;;3.75;0.20;;;17.60;94.40;;;;;;5009409;28;20069;-47
2022/09/21 10:56:11;;;;;;;5.00;0.40;;;17.70;94.80;;;;;;5030309;28;20103;-48
2022/09/21 10:58:38;;;;;;;6.95;0.60;;;17.80;94.90;;;;;;5014357;28;20179;-52
2022/09/21 11:01:22;;;;;;;2.67;0.35;;;17.80;95.30;;;;;;5029321;28;20045;-49
2022/09/21 11:03:59;;;;;;;2.85;0.20;;;17.90;95.70;;;;;;5026044;28;20100;-43
2022/09/21 11:06:40;;;;;;;3.97;0.43;;;18.00;96.20;;;;;;5028096;28;20049;-45
2022/09/21 11:09:11;;;;;;;6.57;0.90;;;17.90;94.90;;;;;;5028461;28;20065;-51
2022/09/21 11:11:42;;;;;;;5.97;0.30;;;17.70;95.40;;;;;;5027997;28;20526;-54
2022/09/21 11:14:21;;;;;;;4.05;0.20;;;17.50;94.20;;;;;;5031178;28;20353;-48
2022/09/21 11:16:57;;;;;;;4.43;0.13;;;17.50;93.80;;;;;;5031171;28;20049;-53
2022/09/21 11:20:13;;;;;;;3.83;0.50;;;17.50;94.30;;;;;;5028814;28;20037;-54
2022/09/21 11:22:46;;;;;;;5.80;0.20;;;17.50;94.70;;;;;;5021175;28;20491;-42
2022/09/21 11:25:39;;;;;;;3.58;0.30;;;17.70;94.80;;;;;;5006511;28;20148;-42
2022/09/21 11:28:27;;;;;;;6.10;0.20;;;17.90;94.50;;;;;;5006887;28;20056;-44
2022/09/21 11:31:15;;;;;;;1.85;0.10;;;17.80;94.00;;;;;;5024729;28;20499;-42
2022/09/21 11:33:55;;;;;;;2.10;0.40;;;18.00;94.10;;;;;;4953033;28;20403;-42
2022/09/21 11:36:38;;;;;;;4.30;0.45;;;18.10;93.60;;;;;;5024871;28;20045;-44
2022/09/21 11:39:40;;;;;;;3.50;0.20;;;18.10;93.30;;;;;;5024619;28;20073;-44
2022/09/21 11:42:17;;;;;;;4.30;0.20;;;18.10;92.60;;;;;;5006959;28;20503;-43
2022/09/21 11:44:48;;;;;;;4.05;0.32;;;18.00;93.90;;;;;;4991045;28;20060;-43
2022/09/21 11:47:36;;;;;;;6.10;0.22;;;17.90;90.80;;;;;;5028308;28;20037;-45
2022/09/21 11:50:07;;;;;;;2.45;0.43;;;17.80;91.90;;;;;;5007355;28;20049;-42
2022/09/21 11:52:46;;;;;;;1.70;0.10;;;17.80;93.40;;;;;;5026232;28;20050;-41
2022/09/21 11:55:22;;;;;;;3.58;0.20;;;17.80;92.80;;;;;;5026082;28;20045;-40
2022/09/21 11:57:56;;;;;;;4.68;0.30;;;17.80;92.90;;;;;;5008364;28;20055;-41
2022/09/21 12:00:25;;;;;;;4.88;0.50;;;17.70;91.60;;;;;;5026217;28;20041;-41
2022/09/21 12:03:22;;;;;;;5.63;0.50;;;17.70;91.60;;;;;;5027237;28;20042;-42
2022/09/21 12:06:06;;;;;;;3.65;0.30;;;17.70;92.40;;;;;;5012706;28;20045;-41
2022/09/21 12:08:48;;;;;;;3.17;0.30;;;17.80;91.90;;;;;;5030162;28;20048;-42
2022/09/21 12:11:30;;;;;;;0.70;0.10;;;17.80;92.00;;;;;;5030352;28;20041;-41
2022/09/21 12:14:27;;;;;;;4.53;0.30;;;17.80;91.40;;;;;;5030888;28;20048;-42
2022/09/21 12:17:08;;;;;;;4.15;0.52;;;17.90;86.70;;;;;;5030898;28;20045;-40
2022/09/21 12:19:36;;;;;;;3.55;0.38;;;17.90;90.40;;;;;;5030232;28;20038;-42
2022/09/21 12:22:34;;;;;;;3.13;0.20;;;17.90;90.00;;;;;;5030579;28;20052;-42
2022/09/21 12:25:40;;;;;;;2.67;0.30;;;17.90;89.50;;;;;;5030334;28;20052;-41
2022/09/21 12:28:36;;;;;;;4.93;0.30;;;17.90;90.90;;;;;;5030826;28;20129;-41
2022/09/21 12:31:12;;;;;;;2.85;0.30;;;17.90;91.10;;;;;;5030685;28;20045;-41
2022/09/21 12:34:08;;;;;;;4.63;0.30;;;18.00;91.90;;;;;;5030697;28;20042;-41
2022/09/21 12:36:59;;;;;;;4.72;0.63;;;18.00;91.80;;;;;;5019291;28;20403;-42
2022/09/21 12:39:45;;;;;;;2.67;0.50;;;18.00;92.50;;;;;;5013009;28;20674;-41
2022/09/21 12:42:45;;;;;;;6.18;0.28;;;18.00;92.40;;;;;;5031089;28;20074;-41
2022/09/21 12:45:40;;;;;;;1.85;0.10;;;18.00;89.90;;;;;;5030446;28;20045;-42
2022/09/21 12:48:24;;;;;;;2.33;0.22;;;17.90;89.50;;;;;;5030882;28;20083;-41
2022/09/21 12:51:10;;;;;;;2.25;0.13;;;17.80;90.20;;;;;;5030219;28;20042;-41
2022/09/21 12:53:39;;;;;;;2.78;0.10;;;17.80;90.30;;;;;;5016565;28;20065;-41
2022/09/21 12:56:12;;;;;;;3.55;0.35;;;17.80;91.20;;;;;;5030177;28;20121;-41
2022/09/21 12:58:52;;;;;;;5.30;0.20;;;17.90;92.10;;;;;;5029558;28;20049;-42
2022/09/21 13:01:25;;;;;;;4.22;0.60;;;17.70;91.90;;;;;;5029939;28;20086;-40
2022/09/21 13:04:00;;;;;;;1.20;0.10;;;17.70;91.30;;;;;;5029572;28;20049;-41
2022/09/21 13:07:01;;;;;;;2.22;0.10;;;17.70;91.00;;;;;;5029608;28;20144;-41
2022/09/21 13:09:28;;;;;;;1.60;0.10;;;17.70;92.20;;;;;;5023685;28;20072;-42
2022/09/21 13:12:03;;;;;;;1.98;0.17;;;17.70;91.80;;;;;;5029946;28;20060;-42
2022/09/21 13:14:35;;;;;;;2.58;0.13;;;17.70;90.60;;;;;;5028949;28;20048;-41
2022/09/21 13:17:04;;;;;;;2.78;0.25;;;17.60;87.70;;;;;;5029685;28;20579;-41
2022/09/21 13:19:32;;;;;;;4.68;0.50;;;17.50;87.60;;;;;;5029921;28;20033;-42
2022/09/21 13:22:21;;;;;;;4.15;0.35;;;17.60;88.90;;;;;;5030211;28;20061;-41
2022/09/21 13:25:18;;;;;;;4.35;0.50;;;17.50;90.30;;;;;;5030092;28;20053;-41
2022/09/21 13:28:18;;;;;;;6.35;0.40;;;17.40;91.20;;;;;;5028659;28;20053;-41
2022/09/21 13:31:27;;;;;;;1.75;0.15;;;17.20;91.50;;;;;;5024716;28;20057;-41
2022/09/21 13:34:18;;;;;;;3.30;0.20;;;17.10;90.00;;;;;;5029487;28;20048;-42